sensor_id;sensor_type;location;lat;lon;timestamp;temperature;humidity
7572;DHT22;3827;49.928;8.548;2023-01-31T00:01:05;3.90;99.90
7572;DHT22;3827;49.928;8.548;2023-01-31T00:03:32;4.00;99.90
7572;DHT22;3827;49.928;8.548;2023-01-31T00:06:08;3.90;99.90
7572;DHT22;3827;49.928;8.548;2023-01-31T00:08:35;3.90;99.90
7572;DHT22;3827;49.928;8.548;2023-01-31T00:11:04;4.20;99.90
7572;DHT22;3827;49.928;8.548;2023-01-31T00:13:30;3.90;99.90
7572;DHT22;3827;49.928;8.548;2023-01-31T00:15:57;3.90;99.90
7572;DHT22;3827;49.928;8.548;2023-01-31T00:18:24;4.00;99.90
7572;DHT22;3827;49.928;8.548;2023-01-31T00:20:51;4.00;99.90
7572;DHT22;3827;49.928;8.548;2023-01-31T00:23:18;4.00;99.90
7572;DHT22;3827;49.928;8.548;2023-01-31T00:25:45;4.00;99.90
7572;DHT22;3827;49.928;8.548;2023-01-31T00:28:13;4.00;99.90
7572;DHT22;3827;49.928;8.548;2023-01-31T00:30:40;4.00;99.90
7572;DHT22;3827;49.928;8.548;2023-01-31T00:33:06;4.00;99.90
7572;DHT22;3827;49.928;8.548;2023-01-31T00:35:36;4.00;99.90
7572;DHT22;3827;49.928;8.548;2023-01-31T00:38:03;3.90;99.90
7572;DHT22;3827;49.928;8.548;2023-01-31T00:40:30;3.90;99.90
7572;DHT22;3827;49.928;8.548;2023-01-31T00:42:56;3.90;99.90
7572;DHT22;3827;49.928;8.548;2023-01-31T00:45:25;3.90;99.90
7572;DHT22;3827;49.928;8.548;2023-01-31T00:47:51;3.90;99.90
7572;DHT22;3827;49.928;8.548;2023-01-31T00:50:18;3.80;99.90
7572;DHT22;3827;49.928;8.548;2023-01-31T00:52:45;3.80;99.90
7572;DHT22;3827;49.928;8.548;2023-01-31T00:55:12;3.80;99.90
7572;DHT22;3827;49.928;8.548;2023-01-31T00:57:38;3.70;99.90
7572;DHT22;3827;49.928;8.548;2023-01-31T01:00:06;3.90;99.90
7572;DHT22;3827;49.928;8.548;2023-01-31T01:02:35;3.70;99.90
7572;DHT22;3827;49.928;8.548;2023-01-31T01:05:01;3.60;99.90
7572;DHT22;3827;49.928;8.548;2023-01-31T01:07:28;3.50;99.90
7572;DHT22;3827;49.928;8.548;2023-01-31T01:09:55;3.50;99.90
7572;DHT22;3827;49.928;8.548;2023-01-31T01:12:22;3.40;99.90
7572;DHT22;3827;49.928;8.548;2023-01-31T01:14:49;3.40;99.90
7572;DHT22;3827;49.928;8.548;2023-01-31T01:17:16;3.40;99.90
7572;DHT22;3827;49.928;8.548;2023-01-31T01:19:44;3.40;99.90
7572;DHT22;3827;49.928;8.548;2023-01-31T01:22:11;3.30;99.90
7572;DHT22;3827;49.928;8.548;2023-01-31T01:24:40;3.20;99.90
7572;DHT22;3827;49.928;8.548;2023-01-31T01:27:07;3.10;99.90
7572;DHT22;3827;49.928;8.548;2023-01-31T01:29:34;3.00;99.90
7572;DHT22;3827;49.928;8.548;2023-01-31T01:32:02;2.90;99.90
7572;DHT22;3827;49.928;8.548;2023-01-31T01:34:29;2.90;99.90
7572;DHT22;3827;49.928;8.548;2023-01-31T01:36:57;2.80;99.90
7572;DHT22;3827;49.928;8.548;2023-01-31T01:39:24;2.70;99.90
7572;DHT22;3827;49.928;8.548;2023-01-31T01:41:54;2.60;99.90
7572;DHT22;3827;49.928;8.548;2023-01-31T01:44:46;2.60;99.90
7572;DHT22;3827;49.928;8.548;2023-01-31T01:47:32;2.50;99.90
7572;DHT22;3827;49.928;8.548;2023-01-31T01:50:02;2.50;99.90
7572;DHT22;3827;49.928;8.548;2023-01-31T01:52:34;2.40;99.90
7572;DHT22;3827;49.928;8.548;2023-01-31T01:55:17;2.40;99.90
7572;DHT22;3827;49.928;8.548;2023-01-31T01:57:46;2.40;99.90
7572;DHT22;3827;49.928;8.548;2023-01-31T02:00:19;2.30;99.90
7572;DHT22;3827;49.928;8.548;2023-01-31T02:02:47;2.30;99.90
7572;DHT22;3827;49.928;8.548;2023-01-31T02:05:28;2.40;99.90
7572;DHT22;3827;49.928;8.548;2023-01-31T02:07:58;2.50;99.90
7572;DHT22;3827;49.928;8.548;2023-01-31T02:10:30;2.50;99.90
7572;DHT22;3827;49.928;8.548;2023-01-31T02:12:58;2.60;99.90
7572;DHT22;3827;49.928;8.548;2023-01-31T02:15:25;2.60;99.90
7572;DHT22;3827;49.928;8.548;2023-01-31T02:17:53;2.70;99.90
7572;DHT22;3827;49.928;8.548;2023-01-31T02:20:43;2.70;99.90
7572;DHT22;3827;49.928;8.548;2023-01-31T02:23:30;2.70;99.90
7572;DHT22;3827;49.928;8.548;2023-01-31T02:26:26;2.70;99.90
7572;DHT22;3827;49.928;8.548;2023-01-31T02:29:19;2.70;99.90
7572;DHT22;3827;49.928;8.548;2023-01-31T02:31:59;2.70;99.90
7572;DHT22;3827;49.928;8.548;2023-01-31T02:34:35;2.70;99.90
7572;DHT22;3827;49.928;8.548;2023-01-31T02:37:15;2.60;99.90
7572;DHT22;3827;49.928;8.548;2023-01-31T02:39:52;2.60;99.90
7572;DHT22;3827;49.928;8.548;2023-01-31T02:42:29;2.50;99.90
7572;DHT22;3827;49.928;8.548;2023-01-31T02:45:05;2.40;99.90
7572;DHT22;3827;49.928;8.548;2023-01-31T02:47:50;2.40;99.90
7572;DHT22;3827;49.928;8.548;2023-01-31T02:50:24;2.30;99.90
7572;DHT22;3827;49.928;8.548;2023-01-31T02:52:55;2.20;99.90
7572;DHT22;3827;49.928;8.548;2023-01-31T02:55:27;2.10;99.90
7572;DHT22;3827;49.928;8.548;2023-01-31T02:58:15;2.10;99.90
7572;DHT22;3827;49.928;8.548;2023-01-31T03:00:44;1.90;99.90
7572;DHT22;3827;49.928;8.548;2023-01-31T03:03:18;1.90;99.90
7572;DHT22;3827;49.928;8.548;2023-01-31T03:06:11;1.80;99.90
7572;DHT22;3827;49.928;8.548;2023-01-31T03:09:03;1.70;99.90
7572;DHT22;3827;49.928;8.548;2023-01-31T03:11:39;1.60;99.90
7572;DHT22;3827;49.928;8.548;2023-01-31T03:14:18;1.50;99.90
7572;DHT22;3827;49.928;8.548;2023-01-31T03:16:50;1.50;99.90
7572;DHT22;3827;49.928;8.548;2023-01-31T03:19:39;1.40;99.90
7572;DHT22;3827;49.928;8.548;2023-01-31T03:22:14;1.30;99.90
7572;DHT22;3827;49.928;8.548;2023-01-31T03:24:43;1.40;99.90
7572;DHT22;3827;49.928;8.548;2023-01-31T03:27:12;1.40;99.90
7572;DHT22;3827;49.928;8.548;2023-01-31T03:29:40;1.40;99.90
7572;DHT22;3827;49.928;8.548;2023-01-31T03:32:13;1.30;99.90
7572;DHT22;3827;49.928;8.548;2023-01-31T03:34:44;1.20;99.90
7572;DHT22;3827;49.928;8.548;2023-01-31T03:37:17;1.20;99.90
7572;DHT22;3827;49.928;8.548;2023-01-31T03:39:52;1.10;99.90
7572;DHT22;3827;49.928;8.548;2023-01-31T03:42:23;1.10;99.90
7572;DHT22;3827;49.928;8.548;2023-01-31T03:44:54;1.00;99.90
7572;DHT22;3827;49.928;8.548;2023-01-31T03:47:25;0.90;99.90
7572;DHT22;3827;49.928;8.548;2023-01-31T03:49:55;0.90;99.90
7572;DHT22;3827;49.928;8.548;2023-01-31T03:52:30;0.90;99.90
7572;DHT22;3827;49.928;8.548;2023-01-31T03:55:01;0.90;99.90
7572;DHT22;3827;49.928;8.548;2023-01-31T03:57:32;0.80;99.90
7572;DHT22;3827;49.928;8.548;2023-01-31T04:00:02;0.80;99.90
7572;DHT22;3827;49.928;8.548;2023-01-31T04:02:33;0.80;99.90
7572;DHT22;3827;49.928;8.548;2023-01-31T04:05:04;0.90;99.90
7572;DHT22;3827;49.928;8.548;2023-01-31T04:07:33;0.80;99.90
7572;DHT22;3827;49.928;8.548;2023-01-31T04:10:00;0.80;99.90
7572;DHT22;3827;49.928;8.548;2023-01-31T04:12:27;0.80;99.90
7572;DHT22;3827;49.928;8.548;2023-01-31T04:14:54;0.80;99.90
7572;DHT22;3827;49.928;8.548;2023-01-31T04:17:20;0.80;99.90
7572;DHT22;3827;49.928;8.548;2023-01-31T04:19:47;0.80;99.90
7572;DHT22;3827;49.928;8.548;2023-01-31T04:22:14;0.70;99.90
7572;DHT22;3827;49.928;8.548;2023-01-31T04:24:42;0.80;99.90
7572;DHT22;3827;49.928;8.548;2023-01-31T04:27:09;1.10;99.90
7572;DHT22;3827;49.928;8.548;2023-01-31T04:29:36;0.70;99.90
7572;DHT22;3827;49.928;8.548;2023-01-31T04:32:03;0.70;99.90
7572;DHT22;3827;49.928;8.548;2023-01-31T04:34:30;0.80;99.90
7572;DHT22;3827;49.928;8.548;2023-01-31T04:36:56;0.90;99.90
7572;DHT22;3827;49.928;8.548;2023-01-31T04:39:23;0.90;99.90
7572;DHT22;3827;49.928;8.548;2023-01-31T04:41:52;1.00;99.90
7572;DHT22;3827;49.928;8.548;2023-01-31T04:44:18;1.00;99.90
7572;DHT22;3827;49.928;8.548;2023-01-31T04:46:45;1.00;99.90
7572;DHT22;3827;49.928;8.548;2023-01-31T04:49:12;1.00;99.90
7572;DHT22;3827;49.928;8.548;2023-01-31T04:51:40;0.90;99.90
7572;DHT22;3827;49.928;8.548;2023-01-31T04:54:07;0.90;99.90
7572;DHT22;3827;49.928;8.548;2023-01-31T04:56:33;1.00;99.90
7572;DHT22;3827;49.928;8.548;2023-01-31T04:59:02;1.00;99.90
7572;DHT22;3827;49.928;8.548;2023-01-31T05:01:28;1.00;99.90
7572;DHT22;3827;49.928;8.548;2023-01-31T05:03:55;0.90;99.90
7572;DHT22;3827;49.928;8.548;2023-01-31T05:06:22;0.80;99.90
7572;DHT22;3827;49.928;8.548;2023-01-31T05:08:49;0.80;99.90
7572;DHT22;3827;49.928;8.548;2023-01-31T05:11:17;0.70;99.90
7572;DHT22;3827;49.928;8.548;2023-01-31T05:13:44;0.70;99.90
7572;DHT22;3827;49.928;8.548;2023-01-31T05:16:13;0.70;99.90
7572;DHT22;3827;49.928;8.548;2023-01-31T05:18:40;0.60;99.90
7572;DHT22;3827;49.928;8.548;2023-01-31T05:21:07;0.50;99.90
7572;DHT22;3827;49.928;8.548;2023-01-31T05:23:34;0.60;99.90
7572;DHT22;3827;49.928;8.548;2023-01-31T05:26:02;0.60;99.90
7572;DHT22;3827;49.928;8.548;2023-01-31T05:28:29;0.60;99.90
7572;DHT22;3827;49.928;8.548;2023-01-31T05:31:01;0.60;99.90
7572;DHT22;3827;49.928;8.548;2023-01-31T05:33:29;0.50;99.90
7572;DHT22;3827;49.928;8.548;2023-01-31T05:35:56;0.60;99.90
7572;DHT22;3827;49.928;8.548;2023-01-31T05:38:23;0.60;99.90
7572;DHT22;3827;49.928;8.548;2023-01-31T05:40:51;0.50;99.90
7572;DHT22;3827;49.928;8.548;2023-01-31T05:43:18;0.40;99.90
7572;DHT22;3827;49.928;8.548;2023-01-31T05:45:47;0.30;99.90
7572;DHT22;3827;49.928;8.548;2023-01-31T05:48:13;0.30;99.90
7572;DHT22;3827;49.928;8.548;2023-01-31T05:50:42;0.30;99.90
7572;DHT22;3827;49.928;8.548;2023-01-31T05:53:09;0.20;99.90
7572;DHT22;3827;49.928;8.548;2023-01-31T05:55:35;0.20;99.90
7572;DHT22;3827;49.928;8.548;2023-01-31T05:58:02;0.20;99.90
7572;DHT22;3827;49.928;8.548;2023-01-31T06:00:29;0.10;99.90
7572;DHT22;3827;49.928;8.548;2023-01-31T06:02:57;0.00;99.90
7572;DHT22;3827;49.928;8.548;2023-01-31T06:05:24;-0.80;99.90
7572;DHT22;3827;49.928;8.548;2023-01-31T06:07:52;-0.10;99.90
7572;DHT22;3827;49.928;8.548;2023-01-31T06:10:19;-0.20;99.90
7572;DHT22;3827;49.928;8.548;2023-01-31T06:12:46;0.30;99.90
7572;DHT22;3827;49.928;8.548;2023-01-31T06:15:13;-0.20;99.90
7572;DHT22;3827;49.928;8.548;2023-01-31T06:17:40;-0.20;99.90
7572;DHT22;3827;49.928;8.548;2023-01-31T06:20:08;-0.10;99.90
7572;DHT22;3827;49.928;8.548;2023-01-31T06:22:35;-0.10;99.90
7572;DHT22;3827;49.928;8.548;2023-01-31T06:25:04;-0.10;99.90
7572;DHT22;3827;49.928;8.548;2023-01-31T06:27:31;0.00;99.90
7572;DHT22;3827;49.928;8.548;2023-01-31T06:29:58;0.10;99.90
7572;DHT22;3827;49.928;8.548;2023-01-31T06:32:25;0.20;99.90
7572;DHT22;3827;49.928;8.548;2023-01-31T06:34:51;0.20;99.90
7572;DHT22;3827;49.928;8.548;2023-01-31T06:37:18;0.40;99.90
7572;DHT22;3827;49.928;8.548;2023-01-31T06:39:45;0.50;99.90
7572;DHT22;3827;49.928;8.548;2023-01-31T06:42:13;0.60;99.90
7572;DHT22;3827;49.928;8.548;2023-01-31T06:44:40;0.70;99.90
7572;DHT22;3827;49.928;8.548;2023-01-31T06:47:07;0.80;99.90
7572;DHT22;3827;49.928;8.548;2023-01-31T06:49:33;0.80;99.90
7572;DHT22;3827;49.928;8.548;2023-01-31T06:52:00;0.90;99.90
7572;DHT22;3827;49.928;8.548;2023-01-31T06:54:27;0.90;99.90
7572;DHT22;3827;49.928;8.548;2023-01-31T06:56:54;1.00;99.90
7572;DHT22;3827;49.928;8.548;2023-01-31T06:59:22;1.10;99.90
7572;DHT22;3827;49.928;8.548;2023-01-31T07:01:49;1.10;99.90
7572;DHT22;3827;49.928;8.548;2023-01-31T07:04:15;1.20;99.90
7572;DHT22;3827;49.928;8.548;2023-01-31T07:06:42;1.20;99.90
7572;DHT22;3827;49.928;8.548;2023-01-31T07:09:10;1.60;99.90
7572;DHT22;3827;49.928;8.548;2023-01-31T07:11:37;1.20;99.90
7572;DHT22;3827;49.928;8.548;2023-01-31T07:14:04;1.20;99.90
7572;DHT22;3827;49.928;8.548;2023-01-31T07:16:32;1.00;99.90
7572;DHT22;3827;49.928;8.548;2023-01-31T07:18:59;1.10;99.90
7572;DHT22;3827;49.928;8.548;2023-01-31T07:21:26;1.00;99.90
7572;DHT22;3827;49.928;8.548;2023-01-31T07:23:55;1.00;99.90
7572;DHT22;3827;49.928;8.548;2023-01-31T07:26:22;1.00;99.90
7572;DHT22;3827;49.928;8.548;2023-01-31T07:28:49;1.00;99.90
7572;DHT22;3827;49.928;8.548;2023-01-31T07:31:15;1.00;99.90
7572;DHT22;3827;49.928;8.548;2023-01-31T07:33:43;1.10;99.90
7572;DHT22;3827;49.928;8.548;2023-01-31T07:36:12;1.20;99.90
7572;DHT22;3827;49.928;8.548;2023-01-31T07:38:40;1.20;99.90
7572;DHT22;3827;49.928;8.548;2023-01-31T07:41:08;1.20;99.90
7572;DHT22;3827;49.928;8.548;2023-01-31T07:43:36;1.30;99.90
7572;DHT22;3827;49.928;8.548;2023-01-31T07:46:05;1.30;99.90
7572;DHT22;3827;49.928;8.548;2023-01-31T07:48:34;1.30;99.90
7572;DHT22;3827;49.928;8.548;2023-01-31T07:51:03;1.30;99.90
7572;DHT22;3827;49.928;8.548;2023-01-31T07:53:31;1.30;99.90
7572;DHT22;3827;49.928;8.548;2023-01-31T07:56:06;1.40;99.90
7572;DHT22;3827;49.928;8.548;2023-01-31T07:58:35;2.10;99.90
7572;DHT22;3827;49.928;8.548;2023-01-31T08:01:02;1.60;99.90
7572;DHT22;3827;49.928;8.548;2023-01-31T08:03:46;1.60;99.90
7572;DHT22;3827;49.928;8.548;2023-01-31T08:06:14;1.80;99.90
7572;DHT22;3827;49.928;8.548;2023-01-31T08:08:42;1.90;99.90
7572;DHT22;3827;49.928;8.548;2023-01-31T08:11:10;3.70;99.90
7572;DHT22;3827;49.928;8.548;2023-01-31T08:13:37;2.00;99.90
7572;DHT22;3827;49.928;8.548;2023-01-31T08:16:07;2.00;99.90
7572;DHT22;3827;49.928;8.548;2023-01-31T08:18:35;2.10;99.90
7572;DHT22;3827;49.928;8.548;2023-01-31T08:21:02;2.20;99.90
7572;DHT22;3827;49.928;8.548;2023-01-31T08:23:31;2.20;99.90
7572;DHT22;3827;49.928;8.548;2023-01-31T08:26:01;2.30;99.90
7572;DHT22;3827;49.928;8.548;2023-01-31T08:28:28;2.30;99.90
7572;DHT22;3827;49.928;8.548;2023-01-31T08:30:56;2.30;99.90
7572;DHT22;3827;49.928;8.548;2023-01-31T08:33:26;2.30;99.90
7572;DHT22;3827;49.928;8.548;2023-01-31T08:35:53;2.30;99.90
7572;DHT22;3827;49.928;8.548;2023-01-31T08:38:20;2.80;99.90
7572;DHT22;3827;49.928;8.548;2023-01-31T08:40:48;2.40;99.90
7572;DHT22;3827;49.928;8.548;2023-01-31T08:43:15;2.40;99.90
7572;DHT22;3827;49.928;8.548;2023-01-31T08:45:42;2.40;99.90
7572;DHT22;3827;49.928;8.548;2023-01-31T08:48:10;2.50;99.90
7572;DHT22;3827;49.928;8.548;2023-01-31T08:50:37;2.50;99.90
7572;DHT22;3827;49.928;8.548;2023-01-31T08:53:04;2.50;99.90
7572;DHT22;3827;49.928;8.548;2023-01-31T08:55:34;3.00;99.90
7572;DHT22;3827;49.928;8.548;2023-01-31T08:58:03;2.60;99.90
7572;DHT22;3827;49.928;8.548;2023-01-31T09:00:31;2.60;99.90
7572;DHT22;3827;49.928;8.548;2023-01-31T09:02:59;2.60;99.90
7572;DHT22;3827;49.928;8.548;2023-01-31T09:05:27;2.80;99.90
7572;DHT22;3827;49.928;8.548;2023-01-31T09:07:55;2.90;99.90
7572;DHT22;3827;49.928;8.548;2023-01-31T09:10:22;3.00;99.90
7572;DHT22;3827;49.928;8.548;2023-01-31T09:12:49;3.10;99.90
7572;DHT22;3827;49.928;8.548;2023-01-31T09:15:17;3.30;99.90
7572;DHT22;3827;49.928;8.548;2023-01-31T09:17:44;3.30;99.90
7572;DHT22;3827;49.928;8.548;2023-01-31T09:20:11;3.40;99.90
7572;DHT22;3827;49.928;8.548;2023-01-31T09:22:37;3.60;99.90
7572;DHT22;3827;49.928;8.548;2023-01-31T09:25:05;3.60;99.90
7572;DHT22;3827;49.928;8.548;2023-01-31T09:27:33;3.70;99.90
7572;DHT22;3827;49.928;8.548;2023-01-31T09:30:00;3.70;99.90
7572;DHT22;3827;49.928;8.548;2023-01-31T09:32:29;3.70;99.90
7572;DHT22;3827;49.928;8.548;2023-01-31T09:34:56;3.80;99.90
7572;DHT22;3827;49.928;8.548;2023-01-31T09:37:23;3.90;99.90
7572;DHT22;3827;49.928;8.548;2023-01-31T09:39:50;3.90;99.90
7572;DHT22;3827;49.928;8.548;2023-01-31T09:42:20;4.00;99.90
7572;DHT22;3827;49.928;8.548;2023-01-31T09:44:58;3.90;99.90
7572;DHT22;3827;49.928;8.548;2023-01-31T09:47:27;3.90;99.90
7572;DHT22;3827;49.928;8.548;2023-01-31T09:50:00;4.00;99.90
7572;DHT22;3827;49.928;8.548;2023-01-31T09:52:29;4.60;99.90
7572;DHT22;3827;49.928;8.548;2023-01-31T09:54:57;4.10;99.90
7572;DHT22;3827;49.928;8.548;2023-01-31T09:57:37;4.20;99.90
7572;DHT22;3827;49.928;8.548;2023-01-31T10:00:15;4.10;99.90
7572;DHT22;3827;49.928;8.548;2023-01-31T10:03:10;4.20;99.90
7572;DHT22;3827;49.928;8.548;2023-01-31T10:05:48;4.20;99.90
7572;DHT22;3827;49.928;8.548;2023-01-31T10:08:23;4.30;99.90
7572;DHT22;3827;49.928;8.548;2023-01-31T10:10:55;4.60;99.90
7572;DHT22;3827;49.928;8.548;2023-01-31T10:13:28;4.20;99.90
7572;DHT22;3827;49.928;8.548;2023-01-31T10:16:03;4.20;99.90
7572;DHT22;3827;49.928;8.548;2023-01-31T10:18:32;4.20;99.90
7572;DHT22;3827;49.928;8.548;2023-01-31T10:21:06;4.10;99.90
7572;DHT22;3827;49.928;8.548;2023-01-31T10:23:38;4.10;99.90
7572;DHT22;3827;49.928;8.548;2023-01-31T10:26:09;4.00;99.90
7572;DHT22;3827;49.928;8.548;2023-01-31T10:28:40;4.00;99.90
7572;DHT22;3827;49.928;8.548;2023-01-31T10:31:27;4.10;99.90
7572;DHT22;3827;49.928;8.548;2023-01-31T10:34:00;4.20;99.90
7572;DHT22;3827;49.928;8.548;2023-01-31T10:36:37;4.40;99.90
7572;DHT22;3827;49.928;8.548;2023-01-31T10:39:07;4.60;99.90
7572;DHT22;3827;49.928;8.548;2023-01-31T10:41:50;4.60;99.90
7572;DHT22;3827;49.928;8.548;2023-01-31T10:44:24;4.50;99.90
7572;DHT22;3827;49.928;8.548;2023-01-31T10:46:55;4.60;99.90
7572;DHT22;3827;49.928;8.548;2023-01-31T10:49:25;4.60;99.90
7572;DHT22;3827;49.928;8.548;2023-01-31T10:52:14;4.60;99.90
7572;DHT22;3827;49.928;8.548;2023-01-31T10:54:51;4.50;99.90
7572;DHT22;3827;49.928;8.548;2023-01-31T10:57:19;4.40;99.90
7572;DHT22;3827;49.928;8.548;2023-01-31T10:59:48;4.50;99.90
7572;DHT22;3827;49.928;8.548;2023-01-31T11:02:18;4.70;99.90
7572;DHT22;3827;49.928;8.548;2023-01-31T11:04:48;4.80;99.90
7572;DHT22;3827;49.928;8.548;2023-01-31T11:07:17;5.00;99.90
7572;DHT22;3827;49.928;8.548;2023-01-31T11:09:47;5.20;99.90
7572;DHT22;3827;49.928;8.548;2023-01-31T11:12:16;5.20;99.90
7572;DHT22;3827;49.928;8.548;2023-01-31T11:14:43;5.00;99.90
7572;DHT22;3827;49.928;8.548;2023-01-31T11:17:15;5.00;99.90
7572;DHT22;3827;49.928;8.548;2023-01-31T11:19:45;5.00;99.90
7572;DHT22;3827;49.928;8.548;2023-01-31T11:22:21;5.10;99.90
7572;DHT22;3827;49.928;8.548;2023-01-31T11:24:49;5.20;99.90
7572;DHT22;3827;49.928;8.548;2023-01-31T11:27:24;5.20;99.90
7572;DHT22;3827;49.928;8.548;2023-01-31T11:29:52;5.20;99.90
7572;DHT22;3827;49.928;8.548;2023-01-31T11:32:27;5.10;99.90
7572;DHT22;3827;49.928;8.548;2023-01-31T11:34:57;5.00;99.90
7572;DHT22;3827;49.928;8.548;2023-01-31T11:37:26;5.10;99.90
7572;DHT22;3827;49.928;8.548;2023-01-31T11:39:55;5.10;99.90
7572;DHT22;3827;49.928;8.548;2023-01-31T11:42:23;5.10;99.90
7572;DHT22;3827;49.928;8.548;2023-01-31T11:44:58;5.10;99.90
7572;DHT22;3827;49.928;8.548;2023-01-31T11:47:32;5.00;99.90
7572;DHT22;3827;49.928;8.548;2023-01-31T11:50:01;5.00;99.90
7572;DHT22;3827;49.928;8.548;2023-01-31T11:52:31;5.00;99.90
7572;DHT22;3827;49.928;8.548;2023-01-31T11:55:01;5.00;99.90
7572;DHT22;3827;49.928;8.548;2023-01-31T11:57:31;4.90;99.90
7572;DHT22;3827;49.928;8.548;2023-01-31T12:00:00;4.80;99.90
7572;DHT22;3827;49.928;8.548;2023-01-31T12:02:34;4.90;99.90
7572;DHT22;3827;49.928;8.548;2023-01-31T12:05:08;5.00;99.90
7572;DHT22;3827;49.928;8.548;2023-01-31T12:07:45;4.90;99.90
7572;DHT22;3827;49.928;8.548;2023-01-31T12:10:42;4.90;99.90
7572;DHT22;3827;49.928;8.548;2023-01-31T12:13:14;4.90;99.90
7572;DHT22;3827;49.928;8.548;2023-01-31T12:15:51;4.90;99.90
7572;DHT22;3827;49.928;8.548;2023-01-31T12:18:35;5.30;99.90
7572;DHT22;3827;49.928;8.548;2023-01-31T12:21:12;5.10;99.90
7572;DHT22;3827;49.928;8.548;2023-01-31T12:23:48;5.60;99.90
7572;DHT22;3827;49.928;8.548;2023-01-31T12:26:27;5.20;99.90
7572;DHT22;3827;49.928;8.548;2023-01-31T12:29:09;5.20;99.90
7572;DHT22;3827;49.928;8.548;2023-01-31T12:34:53;5.10;99.90
7572;DHT22;3827;49.928;8.548;2023-01-31T12:37:34;5.10;99.90
7572;DHT22;3827;49.928;8.548;2023-01-31T12:40:21;5.10;99.90
7572;DHT22;3827;49.928;8.548;2023-01-31T12:42:55;5.10;99.90
7572;DHT22;3827;49.928;8.548;2023-01-31T12:45:37;5.00;99.90
7572;DHT22;3827;49.928;8.548;2023-01-31T12:51:20;5.10;99.90
7572;DHT22;3827;49.928;8.548;2023-01-31T12:53:58;5.10;99.90
7572;DHT22;3827;49.928;8.548;2023-01-31T12:56:48;5.20;99.90
7572;DHT22;3827;49.928;8.548;2023-01-31T12:59:38;5.20;99.90
7572;DHT22;3827;49.928;8.548;2023-01-31T13:02:16;5.20;99.90
7572;DHT22;3827;49.928;8.548;2023-01-31T13:04:50;5.20;99.90
7572;DHT22;3827;49.928;8.548;2023-01-31T13:07:21;5.20;99.90
7572;DHT22;3827;49.928;8.548;2023-01-31T13:09:52;5.30;99.90
7572;DHT22;3827;49.928;8.548;2023-01-31T13:12:26;5.30;99.90
7572;DHT22;3827;49.928;8.548;2023-01-31T13:14:59;5.40;99.90
7572;DHT22;3827;49.928;8.548;2023-01-31T13:17:31;5.40;99.90
7572;DHT22;3827;49.928;8.548;2023-01-31T13:20:02;5.50;99.90
7572;DHT22;3827;49.928;8.548;2023-01-31T13:22:40;5.50;99.90
7572;DHT22;3827;49.928;8.548;2023-01-31T13:25:14;5.40;99.90
7572;DHT22;3827;49.928;8.548;2023-01-31T13:27:48;5.50;99.90
7572;DHT22;3827;49.928;8.548;2023-01-31T13:30:23;5.40;99.90
7572;DHT22;3827;49.928;8.548;2023-01-31T13:32:54;5.40;99.90
7572;DHT22;3827;49.928;8.548;2023-01-31T13:35:24;5.40;99.90
7572;DHT22;3827;49.928;8.548;2023-01-31T13:37:55;5.40;99.90
7572;DHT22;3827;49.928;8.548;2023-01-31T13:40:27;5.30;99.90
7572;DHT22;3827;49.928;8.548;2023-01-31T13:43:02;5.30;99.90
7572;DHT22;3827;49.928;8.548;2023-01-31T13:45:36;5.20;99.90
7572;DHT22;3827;49.928;8.548;2023-01-31T13:48:06;5.20;99.90
7572;DHT22;3827;49.928;8.548;2023-01-31T13:50:36;5.20;99.90
7572;DHT22;3827;49.928;8.548;2023-01-31T13:53:09;5.30;99.90
7572;DHT22;3827;49.928;8.548;2023-01-31T13:55:41;5.60;99.90
7572;DHT22;3827;49.928;8.548;2023-01-31T13:58:17;5.30;99.90
7572;DHT22;3827;49.928;8.548;2023-01-31T14:00:47;5.30;99.90
7572;DHT22;3827;49.928;8.548;2023-01-31T14:03:17;5.30;99.90
7572;DHT22;3827;49.928;8.548;2023-01-31T14:05:55;5.30;99.90
7572;DHT22;3827;49.928;8.548;2023-01-31T14:08:29;5.30;99.90
7572;DHT22;3827;49.928;8.548;2023-01-31T14:10:57;5.20;99.90
7572;DHT22;3827;49.928;8.548;2023-01-31T14:13:41;5.30;99.90
7572;DHT22;3827;49.928;8.548;2023-01-31T14:16:37;5.20;99.90
7572;DHT22;3827;49.928;8.548;2023-01-31T14:19:08;5.20;99.90
7572;DHT22;3827;49.928;8.548;2023-01-31T14:21:55;5.20;99.90
7572;DHT22;3827;49.928;8.548;2023-01-31T14:24:57;5.30;99.90
7572;DHT22;3827;49.928;8.548;2023-01-31T14:27:27;5.30;99.90
7572;DHT22;3827;49.928;8.548;2023-01-31T14:30:06;5.40;99.90
7572;DHT22;3827;49.928;8.548;2023-01-31T14:32:38;5.30;99.90
7572;DHT22;3827;49.928;8.548;2023-01-31T14:35:23;5.30;99.90
7572;DHT22;3827;49.928;8.548;2023-01-31T14:38:02;5.30;99.90
7572;DHT22;3827;49.928;8.548;2023-01-31T14:40:33;5.30;99.90
7572;DHT22;3827;49.928;8.548;2023-01-31T14:43:23;5.30;99.90
7572;DHT22;3827;49.928;8.548;2023-01-31T14:46:04;5.40;99.90
7572;DHT22;3827;49.928;8.548;2023-01-31T14:48:51;5.40;99.90
7572;DHT22;3827;49.928;8.548;2023-01-31T14:51:29;5.30;99.90
7572;DHT22;3827;49.928;8.548;2023-01-31T14:54:19;5.50;99.90
7572;DHT22;3827;49.928;8.548;2023-01-31T14:56:54;5.10;99.90
7572;DHT22;3827;49.928;8.548;2023-01-31T14:59:30;5.00;99.90
7572;DHT22;3827;49.928;8.548;2023-01-31T15:02:01;5.00;99.90
7572;DHT22;3827;49.928;8.548;2023-01-31T15:04:44;5.00;99.90
7572;DHT22;3827;49.928;8.548;2023-01-31T15:07:19;5.00;99.90
7572;DHT22;3827;49.928;8.548;2023-01-31T15:09:46;5.00;99.90
7572;DHT22;3827;49.928;8.548;2023-01-31T15:12:50;5.10;99.90
7572;DHT22;3827;49.928;8.548;2023-01-31T15:15:24;5.10;99.90
7572;DHT22;3827;49.928;8.548;2023-01-31T15:17:53;5.00;99.90
7572;DHT22;3827;49.928;8.548;2023-01-31T15:20:24;5.00;99.90
7572;DHT22;3827;49.928;8.548;2023-01-31T15:22:56;5.00;99.90
7572;DHT22;3827;49.928;8.548;2023-01-31T15:25:29;4.90;99.90
7572;DHT22;3827;49.928;8.548;2023-01-31T15:27:59;4.90;99.90
7572;DHT22;3827;49.928;8.548;2023-01-31T15:30:27;5.00;99.90
7572;DHT22;3827;49.928;8.548;2023-01-31T15:33:00;5.00;99.90
7572;DHT22;3827;49.928;8.548;2023-01-31T15:35:30;5.10;99.90
7572;DHT22;3827;49.928;8.548;2023-01-31T15:38:02;5.10;99.90
7572;DHT22;3827;49.928;8.548;2023-01-31T15:40:30;5.10;99.90
7572;DHT22;3827;49.928;8.548;2023-01-31T15:43:15;5.20;99.90
7572;DHT22;3827;49.928;8.548;2023-01-31T15:45:42;5.30;99.90
7572;DHT22;3827;49.928;8.548;2023-01-31T15:48:13;5.40;99.90
7572;DHT22;3827;49.928;8.548;2023-01-31T15:50:48;5.30;99.90
7572;DHT22;3827;49.928;8.548;2023-01-31T15:53:16;5.30;99.90
7572;DHT22;3827;49.928;8.548;2023-01-31T15:55:47;5.30;99.90
7572;DHT22;3827;49.928;8.548;2023-01-31T15:58:17;5.30;99.90
7572;DHT22;3827;49.928;8.548;2023-01-31T16:00:48;5.30;99.90
7572;DHT22;3827;49.928;8.548;2023-01-31T16:03:19;5.20;99.90
7572;DHT22;3827;49.928;8.548;2023-01-31T16:05:48;5.20;99.90
7572;DHT22;3827;49.928;8.548;2023-01-31T16:08:20;5.20;99.90
7572;DHT22;3827;49.928;8.548;2023-01-31T16:10:48;5.20;99.90
7572;DHT22;3827;49.928;8.548;2023-01-31T16:13:16;5.20;99.90
7572;DHT22;3827;49.928;8.548;2023-01-31T16:15:43;5.20;99.90
7572;DHT22;3827;49.928;8.548;2023-01-31T16:18:11;5.60;99.90
7572;DHT22;3827;49.928;8.548;2023-01-31T16:20:43;5.20;99.90
7572;DHT22;3827;49.928;8.548;2023-01-31T16:23:26;5.20;99.90
7572;DHT22;3827;49.928;8.548;2023-01-31T16:25:59;5.70;99.90
7572;DHT22;3827;49.928;8.548;2023-01-31T16:28:28;5.50;99.90
7572;DHT22;3827;49.928;8.548;2023-01-31T16:31:04;5.20;99.90
7572;DHT22;3827;49.928;8.548;2023-01-31T16:33:31;5.20;99.90
7572;DHT22;3827;49.928;8.548;2023-01-31T16:36:05;5.10;99.90
7572;DHT22;3827;49.928;8.548;2023-01-31T16:38:33;5.10;99.90
7572;DHT22;3827;49.928;8.548;2023-01-31T16:41:01;5.20;99.90
7572;DHT22;3827;49.928;8.548;2023-01-31T16:43:33;5.20;99.90
7572;DHT22;3827;49.928;8.548;2023-01-31T16:46:01;5.10;99.90
7572;DHT22;3827;49.928;8.548;2023-01-31T16:48:32;5.10;99.90
7572;DHT22;3827;49.928;8.548;2023-01-31T16:51:00;5.10;99.90